Time;durP1;ratioP1;P1;durP2;ratioP2;P2;SDS_P1;SDS_P2;PMS_P1;PMS_P2;Temp;Humidity;BMP_temperature;BMP_pressure;BME280_temperature;BME280_humidity;BME280_pressure;Samples;Min_cycle;Max_cycle;Signal;HPM_P1;HPM_P2
2021/06/03 00:00:37;;;;;;;;;;;;;;;14.59;100.00;101524.81;5071291;28;20376;-75
2021/06/03 00:03:04;;;;;;;;;;;;;;;14.57;100.00;101525.81;5072066;28;20407;-75
2021/06/03 00:05:31;;;;;;;;;;;;;;;14.58;100.00;101521.25;5071501;28;19925;-76
2021/06/03 00:07:58;;;;;;;;;;;;;;;14.59;100.00;101522.09;5072039;28;19929;-75
2021/06/03 00:10:26;;;;;;;;;;;;;;;14.60;100.00;101523.84;5071564;28;19928;-75
2021/06/03 00:12:53;;;;;;;;;;;;;;;14.59;100.00;101528.44;5072023;28;19932;-76
2021/06/03 00:15:18;;;;;;;;;;;;;;;14.55;100.00;101526.94;5071555;28;19925;-75
2021/06/03 00:17:44;;;;;;;;;;;;;;;14.54;100.00;101534.28;5071854;28;19985;-75
2021/06/03 00:20:12;;;;;;;;;;;;;;;14.48;100.00;101526.59;5072044;28;19932;-76
2021/06/03 00:22:38;;;;;;;;;;;;;;;14.47;100.00;101535.81;5071536;28;20379;-75
2021/06/03 00:25:04;;;;;;;;;;;;;;;14.45;100.00;101528.75;5071777;28;19935;-76
2021/06/03 00:27:31;;;;;;;;;;;;;;;14.45;100.00;101529.59;5071077;28;19932;-75
2021/06/03 00:29:57;;;;;;;;;;;;;;;14.46;100.00;101536.81;5071963;28;19924;-75
2021/06/03 00:32:23;;;;;;;;;;;;;;;14.39;100.00;101533.72;5071575;28;20399;-76
2021/06/03 00:34:49;;;;;;;;;;;;;;;14.36;100.00;101530.38;5053412;28;19948;-75
2021/06/03 00:37:15;;;;;;;;;;;;;;;14.32;100.00;101534.38;5071701;28;20011;-75
2021/06/03 00:39:40;;;;;;;;;;;;;;;14.33;100.00;101534.25;5071365;28;19948;-75
2021/06/03 00:42:06;;;;;;;;;;;;;;;14.32;100.00;101532.50;5053574;28;20017;-75
2021/06/03 00:44:33;;;;;;;;;;;;;;;14.31;100.00;101535.38;5071446;28;19924;-75
2021/06/03 00:46:59;;;;;;;;;;;;;;;14.29;100.00;101540.09;5071046;28;19933;-75
2021/06/03 00:49:25;;;;;;;;;;;;;;;14.25;100.00;101530.44;5053578;28;19940;-75
2021/06/03 00:51:51;;;;;;;;;;;;;;;14.21;100.00;101544.31;5053235;28;20042;-75
2021/06/03 00:54:17;;;;;;;;;;;;;;;14.20;100.00;101537.16;5071210;28;19932;-75
2021/06/03 00:56:44;;;;;;;;;;;;;;;14.19;100.00;101540.88;5053496;28;19963;-75
2021/06/03 00:59:11;;;;;;;;;;;;;;;14.17;100.00;101540.13;5070123;28;19924;-75
2021/06/03 01:01:39;;;;;;;;;;;;;;;14.14;100.00;101543.13;5053344;28;20423;-75
2021/06/03 01:04:06;;;;;;;;;;;;;;;14.10;100.00;101538.06;5052916;28;20383;-75
2021/06/03 01:06:33;;;;;;;;;;;;;;;14.10;100.00;101540.78;5053356;28;19924;-75
2021/06/03 01:09:02;;;;;;;;;;;;;;;14.03;100.00;101534.94;5053153;28;19932;-76
2021/06/03 01:11:31;;;;;;;;;;;;;;;13.94;100.00;101536.59;5052499;28;20022;-75
2021/06/03 01:14:02;;;;;;;;;;;;;;;13.92;100.00;101529.53;5036461;28;19974;-75
2021/06/03 01:16:29;;;;;;;;;;;;;;;13.86;100.00;101539.94;5052842;28;20009;-75
2021/06/03 01:19:00;;;;;;;;;;;;;;;13.83;100.00;101532.03;5071510;28;19930;-76
2021/06/03 01:21:29;;;;;;;;;;;;;;;13.84;100.00;101539.22;5052461;28;20023;-75
2021/06/03 01:23:58;;;;;;;;;;;;;;;13.80;100.00;101537.75;5052660;28;19973;-74
2021/06/03 01:26:25;;;;;;;;;;;;;;;13.80;100.00;101531.41;5052807;28;19925;-76
2021/06/03 01:28:51;;;;;;;;;;;;;;;13.79;100.00;101533.28;5051240;28;19924;-75
2021/06/03 01:31:17;;;;;;;;;;;;;;;13.76;100.00;101530.78;5053016;28;20019;-75
2021/06/03 01:33:43;;;;;;;;;;;;;;;13.76;100.00;101535.38;5070402;28;19928;-75
2021/06/03 01:36:11;;;;;;;;;;;;;;;13.71;100.00;101535.78;5071001;28;19924;-75
2021/06/03 01:38:38;;;;;;;;;;;;;;;13.68;100.00;101530.53;5052740;28;19924;-75
2021/06/03 01:41:05;;;;;;;;;;;;;;;13.64;100.00;101535.41;5070663;28;20281;-75
2021/06/03 01:43:33;;;;;;;;;;;;;;;13.63;100.00;101539.13;5070544;28;20415;-75
2021/06/03 01:45:59;;;;;;;;;;;;;;;13.59;100.00;101537.63;5070370;28;19995;-75
2021/06/03 01:48:27;;;;;;;;;;;;;;;13.64;100.00;101543.59;5052967;28;19966;-75
2021/06/03 01:50:54;;;;;;;;;;;;;;;13.62;100.00;101540.09;5052926;28;19924;-76
2021/06/03 01:53:21;;;;;;;;;;;;;;;13.56;100.00;101541.47;5070248;28;19967;-75
2021/06/03 01:55:48;;;;;;;;;;;;;;;13.58;100.00;101543.22;5052537;28;19935;-76
2021/06/03 01:58:14;;;;;;;;;;;;;;;13.56;100.00;101541.47;5052313;28;19940;-75
2021/06/03 02:00:45;;;;;;;;;;;;;;;13.48;100.00;101546.69;5052894;28;19928;-76
2021/06/03 02:03:12;;;;;;;;;;;;;;;13.46;100.00;101550.53;5052427;28;19936;-75
2021/06/03 02:05:38;;;;;;;;;;;;;;;13.38;100.00;101552.00;5070308;28;19976;-75
2021/06/03 02:08:04;;;;;;;;;;;;;;;13.23;100.00;101553.19;5070619;28;20019;-76
2021/06/03 02:10:53;;;;;;;;;;;;;;;13.17;100.00;101557.25;5052523;28;19925;-75
2021/06/03 02:13:20;;;;;;;;;;;;;;;13.07;100.00;101546.22;5054921;28;20019;-75
2021/06/03 02:15:54;;;;;;;;;;;;;;;12.97;100.00;101553.38;5070225;28;19925;-75
2021/06/03 02:18:22;;;;;;;;;;;;;;;12.84;100.00;101561.66;5052918;28;20240;-75
2021/06/03 02:20:50;;;;;;;;;;;;;;;12.71;100.00;101566.31;5052856;28;20353;-75
2021/06/03 02:23:20;;;;;;;;;;;;;;;12.67;100.00;101570.28;5053725;28;20048;-75
2021/06/03 02:25:49;;;;;;;;;;;;;;;12.63;100.00;101566.06;5056379;28;20319;-75
2021/06/03 02:28:16;;;;;;;;;;;;;;;12.50;100.00;101568.84;5055881;28;19931;-75
2021/06/03 02:30:44;;;;;;;;;;;;;;;12.43;100.00;101570.28;5074123;28;19932;-75
2021/06/03 02:33:12;;;;;;;;;;;;;;;12.31;100.00;101566.66;5056013;28;19963;-75
2021/06/03 02:35:39;;;;;;;;;;;;;;;12.19;100.00;101565.72;5073575;28;20433;-75
2021/06/03 02:38:06;;;;;;;;;;;;;;;12.13;100.00;101567.03;5056058;28;19967;-75
2021/06/03 02:40:33;;;;;;;;;;;;;;;12.04;100.00;101570.44;5055565;28;19978;-75
2021/06/03 02:43:00;;;;;;;;;;;;;;;12.04;100.00;101574.03;5055920;28;19932;-75
2021/06/03 02:45:27;;;;;;;;;;;;;;;12.01;100.00;101568.81;5055645;28;19924;-75
2021/06/03 02:47:55;;;;;;;;;;;;;;;11.99;100.00;101575.34;5055758;28;19974;-76
2021/06/03 02:50:25;;;;;;;;;;;;;;;11.96;100.00;101573.72;5055557;28;19932;-75
2021/06/03 02:52:53;;;;;;;;;;;;;;;11.96;100.00;101575.56;5055247;28;20531;-75
2021/06/03 02:55:22;;;;;;;;;;;;;;;12.00;100.00;101579.81;5073404;28;19937;-75
2021/06/03 02:57:52;;;;;;;;;;;;;;;12.09;100.00;101579.09;5038732;28;19928;-75
2021/06/03 03:00:20;;;;;;;;;;;;;;;12.09;100.00;101581.81;5055616;28;19925;-75
2021/06/03 03:02:49;;;;;;;;;;;;;;;12.11;100.00;101574.44;5055385;28;20019;-75
2021/06/03 03:05:16;;;;;;;;;;;;;;;12.07;100.00;101583.81;5055129;28;19924;-75
2021/06/03 03:07:45;;;;;;;;;;;;;;;11.96;100.00;101581.00;5073173;28;19944;-75
2021/06/03 03:10:12;;;;;;;;;;;;;;;11.85;100.00;101585.38;5055211;28;19978;-75
2021/06/03 03:12:39;;;;;;;;;;;;;;;11.76;100.00;101580.59;5072752;28;20023;-75
2021/06/03 03:15:07;;;;;;;;;;;;;;;11.68;100.00;101586.59;5055073;28;19924;-75
2021/06/03 03:17:33;;;;;;;;;;;;;;;11.64;100.00;101587.78;5055351;28;19925;-75
2021/06/03 03:19:59;;;;;;;;;;;;;;;11.63;100.00;101591.47;5073207;28;19931;-75
2021/06/03 03:22:25;;;;;;;;;;;;;;;11.60;100.00;101588.09;5072638;28;20299;-75
2021/06/03 03:24:53;;;;;;;;;;;;;;;11.57;100.00;101591.91;5055121;28;19928;-75
2021/06/03 03:27:19;;;;;;;;;;;;;;;11.56;100.00;101595.63;5054913;28;20040;-75
2021/06/03 03:29:45;;;;;;;;;;;;;;;11.57;100.00;101594.63;5055054;28;19925;-76
2021/06/03 03:32:11;;;;;;;;;;;;;;;11.58;100.00;101592.81;5054885;28;19931;-75
2021/06/03 03:34:37;;;;;;;;;;;;;;;11.63;100.00;101599.63;5072148;28;19929;-76
2021/06/03 03:37:03;;;;;;;;;;;;;;;11.66;100.00;101595.84;5054946;28;19954;-70
2021/06/03 03:39:31;;;;;;;;;;;;;;;11.70;100.00;101595.53;5054508;28;19962;-70
2021/06/03 03:41:59;;;;;;;;;;;;;;;11.84;100.00;101596.38;5054963;28;20422;-70
2021/06/03 03:44:26;;;;;;;;;;;;;;;11.92;100.00;101598.50;5054630;28;20391;-70
2021/06/03 03:46:52;;;;;;;;;;;;;;;11.97;100.00;101588.19;5054341;28;20372;-70
2021/06/03 03:49:22;;;;;;;;;;;;;;;12.06;100.00;101590.22;5037845;28;19924;-70
2021/06/03 03:51:48;;;;;;;;;;;;;;;12.16;100.00;101590.41;5054339;28;19924;-70
2021/06/03 03:54:15;;;;;;;;;;;;;;;12.27;100.00;101589.63;5054435;28;19968;-70
2021/06/03 03:56:41;;;;;;;;;;;;;;;12.41;100.00;101591.31;5054174;28;19982;-70
2021/06/03 03:59:09;;;;;;;;;;;;;;;12.53;100.00;101588.53;5037799;28;19947;-70
2021/06/03 04:01:35;;;;;;;;;;;;;;;12.62;100.00;101584.22;5054351;28;19928;-70
2021/06/03 04:04:03;;;;;;;;;;;;;;;12.80;100.00;101581.97;5053992;28;19925;-69
2021/06/03 04:06:29;;;;;;;;;;;;;;;12.87;100.00;101585.94;5053838;28;19967;-70
2021/06/03 04:08:59;;;;;;;;;;;;;;;12.95;100.00;101585.34;5053985;28;20038;-70
2021/06/03 04:11:25;;;;;;;;;;;;;;;13.05;100.00;101596.38;5071976;28;19928;-70
2021/06/03 04:13:51;;;;;;;;;;;;;;;13.16;100.00;101590.97;5057488;28;19925;-70
2021/06/03 04:16:20;;;;;;;;;;;;;;;13.25;100.00;101596.69;5053737;28;19924;-70
2021/06/03 04:18:46;;;;;;;;;;;;;;;13.34;100.00;101601.41;5046595;28;19925;-70
2021/06/03 04:21:12;;;;;;;;;;;;;;;13.48;100.00;101603.06;5074732;28;19925;-70
2021/06/03 04:23:40;;;;;;;;;;;;;;;13.56;100.00;101596.03;5040434;28;20391;-70
2021/06/03 04:26:06;;;;;;;;;;;;;;;13.68;100.00;101598.75;5071761;28;19924;-70
2021/06/03 04:28:32;;;;;;;;;;;;;;;13.84;100.00;101599.25;5053502;28;20023;-70
2021/06/03 04:30:58;;;;;;;;;;;;;;;14.02;100.00;101601.47;5067683;28;20383;-70
2021/06/03 04:33:25;;;;;;;;;;;;;;;14.18;100.00;101598.34;5084367;28;19925;-69
2021/06/03 04:35:51;;;;;;;;;;;;;;;14.31;100.00;101607.25;5072747;28;20299;-69
2021/06/03 04:38:17;;;;;;;;;;;;;;;14.44;100.00;101596.16;5072522;28;19924;-69
2021/06/03 04:40:43;;;;;;;;;;;;;;;14.55;100.00;101603.44;5071000;28;19924;-68
2021/06/03 04:43:09;;;;;;;;;;;;;;;14.67;100.00;101597.00;5091046;28;20397;-68
2021/06/03 04:45:36;;;;;;;;;;;;;;;14.78;100.00;101596.06;5072112;28;19978;-67
2021/06/03 04:48:03;;;;;;;;;;;;;;;14.88;100.00;101599.75;5072777;28;20335;-68
2021/06/03 04:50:30;;;;;;;;;;;;;;;14.95;100.00;101599.22;5037557;28;20384;-68
2021/06/03 04:52:56;;;;;;;;;;;;;;;15.04;100.00;101593.81;5052930;28;20357;-68
2021/06/03 04:55:23;;;;;;;;;;;;;;;15.16;100.00;101591.88;5069365;28;19969;-69
2021/06/03 04:57:49;;;;;;;;;;;;;;;15.22;100.00;101596.81;5089870;28;19928;-68
2021/06/03 05:00:16;;;;;;;;;;;;;;;15.31;100.00;101592.44;5056760;28;19998;-68
2021/06/03 05:02:43;;;;;;;;;;;;;;;15.40;100.00;101604.41;5071623;28;19936;-69
2021/06/03 05:05:10;;;;;;;;;;;;;;;15.48;100.00;101610.06;5080236;28;19924;-69
2021/06/03 05:07:37;;;;;;;;;;;;;;;15.57;100.00;101612.00;5090496;28;19931;-68
2021/06/03 05:10:04;;;;;;;;;;;;;;;15.66;100.00;101603.97;5081261;28;20036;-68
2021/06/03 05:12:30;;;;;;;;;;;;;;;15.78;100.00;101605.63;5091025;28;20391;-68
2021/06/03 05:14:56;;;;;;;;;;;;;;;15.84;100.00;101607.81;5089090;28;19974;-68
2021/06/03 05:17:22;;;;;;;;;;;;;;;15.97;100.00;101604.00;5082611;28;19925;-68
2021/06/03 05:19:47;;;;;;;;;;;;;;;16.10;100.00;101601.88;5069366;28;20395;-68
2021/06/03 05:22:13;;;;;;;;;;;;;;;16.17;100.00;101597.56;5082473;28;19931;-68
2021/06/03 05:24:41;;;;;;;;;;;;;;;16.30;100.00;101599.19;5090400;28;19928;-67
2021/06/03 05:27:07;;;;;;;;;;;;;;;16.37;100.00;101600.38;5062024;28;19924;-68
2021/06/03 05:29:33;;;;;;;;;;;;;;;16.48;100.00;101602.97;5071423;28;19932;-68
2021/06/03 05:31:59;;;;;;;;;;;;;;;16.61;100.00;101601.81;5070578;28;20380;-68
2021/06/03 05:34:25;;;;;;;;;;;;;;;16.78;100.00;101598.34;5058119;28;19988;-68
2021/06/03 05:36:51;;;;;;;;;;;;;;;16.94;100.00;101607.91;5076042;28;20001;-70
2021/06/03 05:39:17;;;;;;;;;;;;;;;17.07;100.00;101601.13;5078255;28;19928;-69
2021/06/03 05:41:44;;;;;;;;;;;;;;;17.15;100.00;101607.75;5086328;28;19931;-68
2021/06/03 05:44:11;;;;;;;;;;;;;;;17.22;100.00;101606.16;5070305;28;19931;-69
2021/06/03 05:46:38;;;;;;;;;;;;;;;17.37;100.00;101610.19;5071506;28;20392;-68
2021/06/03 05:49:04;;;;;;;;;;;;;;;17.39;100.00;101615.50;5052339;28;20057;-69
2021/06/03 05:51:30;;;;;;;;;;;;;;;17.45;100.00;101608.56;5070141;28;19955;-69
2021/06/03 05:53:56;;;;;;;;;;;;;;;17.50;99.54;101607.09;5087782;28;19924;-68
2021/06/03 05:56:24;;;;;;;;;;;;;;;17.69;99.45;101616.28;5065608;28;20453;-69
2021/06/03 05:58:52;;;;;;;;;;;;;;;18.07;98.83;101620.78;5055479;28;19978;-69
2021/06/03 06:01:18;;;;;;;;;;;;;;;18.41;96.86;101627.53;5075897;28;19931;-69
2021/06/03 06:03:46;;;;;;;;;;;;;;;18.82;92.77;101622.47;5077744;28;19928;-69
2021/06/03 06:06:24;;;;;;;;;;;;;;;19.21;89.68;101613.03;5075704;28;19967;-70
2021/06/03 06:08:51;;;;;;;;;;;;;;;19.41;84.83;101616.44;5080491;28;19931;-71
2021/06/03 06:11:17;;;;;;;;;;;;;;;19.52;81.82;101624.44;5074130;28;20593;-69
2021/06/03 06:13:44;;;;;;;;;;;;;;;19.90;83.52;101630.53;5070952;28;19928;-69
2021/06/03 06:16:11;;;;;;;;;;;;;;;20.50;81.22;101625.09;5093063;28;20018;-70
2021/06/03 06:18:37;;;;;;;;;;;;;;;20.76;71.32;101629.66;5092895;28;20417;-70
2021/06/03 06:21:04;;;;;;;;;;;;;;;21.18;72.19;101628.66;5081834;28;19963;-70
2021/06/03 06:23:30;;;;;;;;;;;;;;;21.48;64.12;101631.72;5077167;28;19982;-68
2021/06/03 06:25:56;;;;;;;;;;;;;;;21.39;63.70;101642.78;5093603;28;19928;-70
2021/06/03 06:28:22;;;;;;;;;;;;;;;21.45;63.49;101643.13;5086547;28;19924;-69
2021/06/03 06:30:48;;;;;;;;;;;;;;;21.85;64.10;101642.22;5073386;28;19929;-70
2021/06/03 06:33:15;;;;;;;;;;;;;;;21.95;59.90;101650.28;5085512;28;20018;-70
2021/06/03 06:35:44;;;;;;;;;;;;;;;22.03;59.37;101652.16;5086067;28;19924;-69
2021/06/03 06:38:10;;;;;;;;;;;;;;;22.13;58.62;101652.81;5055462;28;20001;-69
2021/06/03 06:40:36;;;;;;;;;;;;;;;22.46;57.89;101655.47;5080766;28;20115;-69
2021/06/03 06:43:02;;;;;;;;;;;;;;;22.87;57.38;101657.97;5093285;28;20597;-69
2021/06/03 06:45:29;;;;;;;;;;;;;;;23.27;57.30;101655.09;5060563;28;20434;-70
2021/06/03 06:47:55;;;;;;;;;;;;;;;23.80;54.24;101649.56;5072829;28;19925;-69
2021/06/03 06:50:22;;;;;;;;;;;;;;;24.22;52.10;101648.06;5072530;28;19935;-70
2021/06/03 06:52:48;;;;;;;;;;;;;;;24.45;50.14;101655.38;5073238;28;19932;-69
2021/06/03 06:55:14;;;;;;;;;;;;;;;24.32;49.27;101655.22;5055096;28;19960;-72
2021/06/03 06:57:40;;;;;;;;;;;;;;;23.39;50.42;101653.59;5073133;28;19974;-69
2021/06/03 07:00:07;;;;;;;;;;;;;;;23.83;51.43;101649.19;5078349;28;19928;-69
2021/06/03 07:02:33;;;;;;;;;;;;;;;24.11;50.22;101656.03;5092547;28;19924;-70
2021/06/03 07:04:59;;;;;;;;;;;;;;;24.12;51.12;101657.72;5092575;28;20413;-70
2021/06/03 07:07:26;;;;;;;;;;;;;;;24.20;50.69;101652.94;5074951;28;19932;-69
2021/06/03 07:09:52;;;;;;;;;;;;;;;24.56;50.67;101660.44;5089317;28;20245;-70
2021/06/03 07:12:18;;;;;;;;;;;;;;;24.72;49.00;101656.59;5090566;28;19959;-69
2021/06/03 07:14:44;;;;;;;;;;;;;;;24.90;49.29;101661.69;5076685;28;19925;-69
2021/06/03 07:17:09;;;;;;;;;;;;;;;24.75;46.77;101660.91;5078323;28;19931;-70
2021/06/03 07:19:35;;;;;;;;;;;;;;;24.72;47.24;101661.31;5074806;28;20444;-69
2021/06/03 07:22:02;;;;;;;;;;;;;;;24.73;47.68;101661.09;5084375;28;20296;-69
2021/06/03 07:24:29;;;;;;;;;;;;;;;24.92;46.60;101663.41;5073408;28;19924;-69
2021/06/03 07:26:55;;;;;;;;;;;;;;;24.96;47.28;101661.97;5049953;28;19925;-70
2021/06/03 07:29:21;;;;;;;;;;;;;;;25.27;45.99;101656.09;5078400;28;19975;-70
2021/06/03 07:31:46;;;;;;;;;;;;;;;25.65;46.22;101661.31;5080837;28;19928;-70
2021/06/03 07:34:12;;;;;;;;;;;;;;;25.92;43.94;101655.09;5072159;28;19928;-70
2021/06/03 07:36:38;;;;;;;;;;;;;;;26.08;41.89;101662.28;5091165;28;19931;-69
2021/06/03 07:39:05;;;;;;;;;;;;;;;25.95;43.21;101657.47;5074399;28;19987;-70
2021/06/03 07:41:33;;;;;;;;;;;;;;;26.08;43.23;101653.94;5074541;28;20013;-68
2021/06/03 07:43:59;;;;;;;;;;;;;;;26.19;42.81;101658.91;5070536;28;19924;-69
2021/06/03 07:46:24;;;;;;;;;;;;;;;25.80;39.21;101652.91;5071377;28;19924;-68
2021/06/03 07:48:50;;;;;;;;;;;;;;;25.52;39.01;101659.31;5072009;28;19924;-69
2021/06/03 07:51:16;;;;;;;;;;;;;;;26.09;40.07;101659.28;5086548;28;20402;-68
2021/06/03 07:53:42;;;;;;;;;;;;;;;26.69;39.45;101661.47;5091651;28;19928;-68
2021/06/03 07:56:08;;;;;;;;;;;;;;;27.20;38.19;101658.16;5084950;28;19935;-68
2021/06/03 07:58:35;;;;;;;;;;;;;;;27.23;37.70;101670.81;5086640;28;19978;-69
2021/06/03 08:01:01;;;;;;;;;;;;;;;26.96;37.54;101661.56;5085648;28;19932;-70
2021/06/03 08:03:27;;;;;;;;;;;;;;;26.96;36.32;101656.00;5088670;28;20353;-70
2021/06/03 08:05:53;;;;;;;;;;;;;;;26.99;38.24;101661.16;5073946;28;19975;-72
2021/06/03 08:08:19;;;;;;;;;;;;;;;26.75;38.76;101659.81;5071381;28;19924;-71
2021/06/03 08:10:45;;;;;;;;;;;;;;;26.64;39.87;101658.47;5085943;28;19928;-71
2021/06/03 08:13:11;;;;;;;;;;;;;;;26.86;37.58;101662.84;5073165;28;20288;-71
2021/06/03 08:15:40;;;;;;;;;;;;;;;26.80;38.49;101660.03;5088101;28;19927;-70
2021/06/03 08:18:07;;;;;;;;;;;;;;;27.11;37.49;101656.69;5071327;28;20713;-70
2021/06/03 08:20:34;;;;;;;;;;;;;;;26.75;35.72;101652.34;5068705;28;19924;-69
2021/06/03 08:23:01;;;;;;;;;;;;;;;27.23;37.65;101660.53;5072035;28;19955;-70
2021/06/03 08:25:26;;;;;;;;;;;;;;;27.39;36.37;101656.50;5078063;28;19935;-69
2021/06/03 08:27:52;;;;;;;;;;;;;;;27.20;35.29;101655.38;5091665;28;19925;-70
2021/06/03 08:30:19;;;;;;;;;;;;;;;26.84;36.57;101647.41;5057110;28;19932;-70
2021/06/03 08:32:48;;;;;;;;;;;;;;;27.17;35.63;101664.16;5068286;28;19982;-70
2021/06/03 08:35:15;;;;;;;;;;;;;;;27.77;36.14;101654.97;5057089;28;19959;-70
2021/06/03 08:37:42;;;;;;;;;;;;;;;27.50;34.60;101657.78;5070353;28;19974;-70
2021/06/03 08:40:09;;;;;;;;;;;;;;;27.76;33.70;101657.97;5070904;28;19986;-69
2021/06/03 08:42:34;;;;;;;;;;;;;;;27.39;35.15;101647.28;5052603;28;19924;-69
2021/06/03 08:45:01;;;;;;;;;;;;;;;27.69;35.78;101647.69;5071340;28;19928;-68
2021/06/03 08:47:28;;;;;;;;;;;;;;;27.13;34.68;101657.31;5070788;28;20304;-68
2021/06/03 08:49:55;;;;;;;;;;;;;;;27.51;36.03;101662.31;5075081;28;20336;-70
2021/06/03 08:52:21;;;;;;;;;;;;;;;27.29;35.33;101655.19;5091180;28;19924;-71
2021/06/03 08:54:49;;;;;;;;;;;;;;;27.59;35.24;101654.78;5088176;28;19935;-70
2021/06/03 08:57:15;;;;;;;;;;;;;;;26.78;34.46;101654.69;5081995;28;19928;-70
2021/06/03 08:59:40;;;;;;;;;;;;;;;27.06;35.32;101653.69;5071882;28;19928;-70
2021/06/03 09:02:06;;;;;;;;;;;;;;;27.22;35.93;101655.19;5069980;28;20424;-70
2021/06/03 09:04:32;;;;;;;;;;;;;;;27.74;34.64;101649.84;5081050;28;19924;-69
2021/06/03 09:06:59;;;;;;;;;;;;;;;28.10;33.70;101642.03;5090864;28;19931;-71
2021/06/03 09:09:26;;;;;;;;;;;;;;;28.13;33.65;101642.47;5080801;28;19924;-69
2021/06/03 09:12:11;;;;;;;;;;;;;;;27.76;33.34;101647.66;5070317;28;19928;-70
2021/06/03 09:14:37;;;;;;;;;;;;;;;27.93;34.22;101641.63;5081054;28;19932;-70
2021/06/03 09:17:03;;;;;;;;;;;;;;;27.88;33.64;101643.13;5090796;28;19968;-68
2021/06/03 09:19:29;;;;;;;;;;;;;;;27.15;33.57;101652.41;5083113;28;19924;-69
2021/06/03 09:21:55;;;;;;;;;;;;;;;27.42;32.89;101644.06;5090314;28;19931;-70
2021/06/03 09:24:23;;;;;;;;;;;;;;;27.78;33.61;101659.47;5074388;28;19928;-69
2021/06/03 09:26:49;;;;;;;;;;;;;;;28.55;33.84;101647.66;5051969;28;20027;-70
2021/06/03 09:29:20;;;;;;;;;;;;;;;28.96;33.03;101649.16;5070468;28;20470;-70
2021/06/03 09:31:47;;;;;;;;;;;;;;;29.30;31.83;101646.13;5072100;28;19935;-70
2021/06/03 09:34:14;;;;;;;;;;;;;;;28.67;31.24;101639.47;5074021;28;19924;-69
2021/06/03 09:36:41;;;;;;;;;;;;;;;28.33;31.57;101650.75;5075356;28;19933;-70
2021/06/03 09:39:12;;;;;;;;;;;;;;;28.02;35.10;101649.59;5074536;28;19982;-70
2021/06/03 09:41:40;;;;;;;;;;;;;;;28.05;32.44;101648.28;5086771;28;19931;-70
2021/06/03 09:44:07;;;;;;;;;;;;;;;28.91;32.67;101642.53;5092815;28;19978;-70
2021/06/03 09:46:35;;;;;;;;;;;;;;;29.27;30.52;101633.47;5089878;28;19931;-69
2021/06/03 09:49:01;;;;;;;;;;;;;;;29.11;30.97;101639.59;5082950;28;19924;-69
2021/06/03 09:51:28;;;;;;;;;;;;;;;29.16;30.17;101640.63;5077190;28;19932;-69
2021/06/03 09:53:56;;;;;;;;;;;;;;;29.04;29.33;101636.84;5073657;28;19924;-70
2021/06/03 09:56:22;;;;;;;;;;;;;;;29.15;29.00;101635.28;5074216;28;19931;-68
2021/06/03 09:58:50;;;;;;;;;;;;;;;28.92;31.95;101625.53;5073443;28;20399;-70
2021/06/03 10:01:36;;;;;;;;;;;;;;;29.37;30.67;101624.56;5088937;28;19930;-70
2021/06/03 10:04:01;;;;;;;;;;;;;;;29.66;30.05;101625.78;5092292;28;20383;-69
2021/06/03 10:06:27;;;;;;;;;;;;;;;29.61;30.24;101627.56;5077271;28;19935;-69
2021/06/03 10:08:53;;;;;;;;;;;;;;;29.50;28.99;101616.06;5085289;28;19932;-69
2021/06/03 10:11:34;;;;;;;;;;;;;;;29.36;30.22;101622.88;5074032;28;19943;-69
2021/06/03 10:14:11;;;;;;;;;;;;;;;29.51;30.35;101620.56;5090648;28;20286;-69
2021/06/03 10:16:37;;;;;;;;;;;;;;;28.93;30.53;101620.81;5074275;28;19943;-71
2021/06/03 10:19:19;;;;;;;;;;;;;;;29.12;29.78;101618.97;5079167;28;20268;-68
2021/06/03 10:22:05;;;;;;;;;;;;;;;29.37;29.34;101610.59;5058233;28;19931;-69
2021/06/03 10:24:46;;;;;;;;;;;;;;;29.41;30.02;101614.66;5073144;28;19925;-69
2021/06/03 10:27:12;;;;;;;;;;;;;;;29.21;29.68;101607.25;5079247;28;19924;-70
2021/06/03 10:29:39;;;;;;;;;;;;;;;29.18;30.66;101618.03;5074933;28;20019;-69
2021/06/03 10:32:05;;;;;;;;;;;;;;;29.29;30.20;101613.66;5093346;28;19924;-68
2021/06/03 10:34:32;;;;;;;;;;;;;;;28.80;29.32;101610.59;5088898;28;19932;-68
2021/06/03 10:36:58;;;;;;;;;;;;;;;28.89;29.46;101612.88;5073175;28;19925;-69
2021/06/03 10:39:25;;;;;;;;;;;;;;;29.60;33.01;101606.28;5076541;28;20311;-69
2021/06/03 10:41:51;;;;;;;;;;;;;;;29.67;29.11;101609.88;5079551;28;19932;-69
2021/06/03 10:44:17;;;;;;;;;;;;;;;29.19;28.52;101616.97;5073106;28;19924;-68
2021/06/03 10:46:44;;;;;;;;;;;;;;;29.19;29.27;101614.16;5066591;28;19928;-69
2021/06/03 10:49:10;;;;;;;;;;;;;;;29.52;28.72;101613.88;5075650;28;20399;-69
2021/06/03 10:51:39;;;;;;;;;;;;;;;29.19;29.13;101609.41;5076186;28;19925;-69
2021/06/03 10:54:04;;;;;;;;;;;;;;;29.49;31.64;101597.59;5054909;28;19924;-69
2021/06/03 10:56:30;;;;;;;;;;;;;;;29.40;29.44;101598.97;5072327;28;20388;-68
2021/06/03 10:58:56;;;;;;;;;;;;;;;29.58;27.98;101605.66;5073120;28;19993;-68
2021/06/03 11:01:23;;;;;;;;;;;;;;;29.34;26.48;101600.75;5061429;28;19925;-69
2021/06/03 11:03:53;;;;;;;;;;;;;;;29.48;28.19;101590.28;5085202;28;19932;-66
2021/06/03 11:06:19;;;;;;;;;;;;;;;29.37;28.28;101586.28;5077276;28;19935;-66
2021/06/03 11:08:47;;;;;;;;;;;;;;;30.03;27.22;101599.81;5076234;28;19970;-66
2021/06/03 11:11:27;;;;;;;;;;;;;;;30.17;26.25;101597.69;5074807;28;19925;-66
2021/06/03 11:14:00;;;;;;;;;;;;;;;30.60;26.96;101595.84;5072103;28;19971;-66
2021/06/03 11:16:26;;;;;;;;;;;;;;;30.26;26.00;101595.44;5080369;28;19924;-69
2021/06/03 11:19:13;;;;;;;;;;;;;;;30.44;27.00;101595.41;5075275;28;19935;-68
2021/06/03 11:21:50;;;;;;;;;;;;;;;30.52;28.77;101589.50;5044196;28;19982;-68
2021/06/03 11:24:49;;;;;;;;;;;;;;;30.57;26.68;101597.19;5072152;28;19931;-68
2021/06/03 11:27:16;;;;;;;;;;;;;;;30.04;25.57;101593.13;4978488;28;19930;-68
2021/06/03 11:29:54;;;;;;;;;;;;;;;30.00;25.83;101595.53;4971103;28;19941;-69
2021/06/03 11:32:22;;;;;;;;;;;;;;;30.37;26.09;101589.03;5022294;28;19936;-68
2021/06/03 11:34:49;;;;;;;;;;;;;;;29.86;25.17;101589.22;5055792;28;19932;-68
2021/06/03 11:37:18;;;;;;;;;;;;;;;29.85;26.70;101584.72;5078099;28;19928;-68
2021/06/03 11:39:45;;;;;;;;;;;;;;;30.39;25.77;101582.09;5091711;28;19928;-68
2021/06/03 11:42:32;;;;;;;;;;;;;;;30.61;25.47;101587.19;5090492;28;20030;-69
2021/06/03 11:45:07;;;;;;;;;;;;;;;29.37;26.70;101588.22;5084783;28;19928;-69
2021/06/03 11:47:56;;;;;;;;;;;;;;;29.46;26.43;101586.84;5086472;28;19925;-69
2021/06/03 11:50:42;;;;;;;;;;;;;;;29.97;26.87;101586.75;5069623;28;19928;-69
2021/06/03 11:53:11;;;;;;;;;;;;;;;30.55;25.61;101579.78;5045588;28;19935;-70
2021/06/03 11:55:38;;;;;;;;;;;;;;;30.81;25.37;101578.50;5080931;28;19928;-69
2021/06/03 11:58:11;;;;;;;;;;;;;;;30.63;26.53;101585.03;5073726;28;20387;-69
2021/06/03 12:00:38;;;;;;;;;;;;;;;30.66;25.23;101583.69;5062356;28;19935;-69
2021/06/03 12:03:19;;;;;;;;;;;;;;;30.55;25.20;101576.97;5090024;28;19924;-69
2021/06/03 12:05:45;;;;;;;;;;;;;;;31.14;27.95;101579.09;5081534;28;20341;-69
2021/06/03 12:08:30;;;;;;;;;;;;;;;31.65;24.56;101576.66;5090289;28;20241;-69
2021/06/03 12:10:56;;;;;;;;;;;;;;;31.14;23.90;101574.31;5053952;28;20027;-69
2021/06/03 12:13:22;;;;;;;;;;;;;;;30.42;24.97;101571.53;5074116;28;20368;-68
2021/06/03 12:15:47;;;;;;;;;;;;;;;30.61;25.68;101583.56;5076244;28;19974;-69
2021/06/03 12:18:13;;;;;;;;;;;;;;;31.15;24.75;101569.59;5083752;28;19967;-69
2021/06/03 12:20:40;;;;;;;;;;;;;;;31.18;23.51;101564.31;5078042;28;19924;-69
2021/06/03 12:23:07;;;;;;;;;;;;;;;32.01;24.80;101571.84;5071904;28;20304;-69
2021/06/03 12:25:34;;;;;;;;;;;;;;;32.08;23.78;101569.72;5070983;28;19947;-69
2021/06/03 12:28:01;;;;;;;;;;;;;;;31.81;24.48;101567.47;5072555;28;19931;-69
2021/06/03 12:30:29;;;;;;;;;;;;;;;32.20;23.41;101566.94;5070142;28;19924;-69
2021/06/03 12:33:02;;;;;;;;;;;;;;;32.31;23.06;101565.16;5076888;28;20352;-69
2021/06/03 12:35:32;;;;;;;;;;;;;;;32.36;23.76;101560.53;5071327;28;19924;-69